Back to Top

Language: 

My Weather Underground Personal Weather Station Historical Data with Graphs...

Delerius Weather Station Historical Data
Daily Summary for July 31, 2017 Units:  English    Metric   Both
« Previous Day
Next Day »
Daily Weekly Monthly Yearly Custom
  High: Low: Average:
Temperature: 69.3 °F 55.0 °F 60.8 °F
Dew Point: 59.3 °F 50.7 °F 52.4 °F
Humidity: 91 % 55 % 75 %
Wind Speed: 14.0 mph 1.0 mph 8 mph
Wind Gust: 25.0 mph - -
Wind:- - SW
Pressure: 29.85 in 29.66 in -
Precipitation: 0.09 in    
Historical Graphs
 
 
Tabular Data for July 31, 2017
Time Temperature Dew Point Pressure Wind Wind Speed Wind Gust Humidity Rainfall Rate (Hourly) solar Conditions
00:01 57.2 °F 52.7 °F 29.67 in SSW 3.0 mph 9.0 mph 85 % 0.00 in 0 W/m2
00:06 57.0 °F 52.6 °F 29.67 in SSW 3.0 mph 6.0 mph 85 % 0.00 in 0 W/m2
00:11 56.8 °F 52.7 °F 29.67 in SSW 3.0 mph 7.0 mph 86 % 0.00 in 0 W/m2
00:16 56.8 °F 52.7 °F 29.67 in SSW 2.0 mph 7.0 mph 86 % 0.00 in 0 W/m2
00:21 56.7 °F 52.8 °F 29.67 in SSW 1.0 mph 4.0 mph 87 % 0.00 in 0 W/m2
00:26 56.5 °F 52.7 °F 29.67 in SSW 1.0 mph 6.0 mph 87 % 0.00 in 0 W/m2
00:31 56.5 °F 53.0 °F 29.67 in SSW 1.0 mph 6.0 mph 88 % 0.00 in 0 W/m2
00:36 56.5 °F 53.0 °F 29.66 in SSW 1.0 mph 7.0 mph 88 % 0.00 in 0 W/m2
00:41 56.3 °F 52.8 °F 29.66 in SSW 2.0 mph 8.0 mph 88 % 0.00 in 0 W/m2
00:46 56.3 °F 52.8 °F 29.66 in SSW 4.0 mph 8.0 mph 88 % 0.00 in 0 W/m2
00:51 56.1 °F 52.6 °F 29.66 in SSW 5.0 mph 9.0 mph 88 % 0.00 in 0 W/m2
00:56 56.3 °F 52.8 °F 29.66 in SSW 6.0 mph 11.0 mph 88 % 0.00 in 0 W/m2
01:01 56.1 °F 52.6 °F 29.66 in SW 7.0 mph 11.0 mph 88 % 0.00 in 0 W/m2
01:06 56.1 °F 52.3 °F 29.66 in SW 6.0 mph 12.0 mph 87 % 0.00 in 0 W/m2
01:11 56.3 °F 52.5 °F 29.66 in SW 6.0 mph 12.0 mph 87 % 0.00 in 0 W/m2
01:16 56.3 °F 52.5 °F 29.66 in SW 7.0 mph 12.0 mph 87 % 0.00 in 0 W/m2
01:21 56.3 °F 52.2 °F 29.66 in SW 7.0 mph 12.0 mph 86 % 0.00 in 0 W/m2
01:26 56.1 °F 52.0 °F 29.66 in SW 7.0 mph 11.0 mph 86 % 0.00 in 0 W/m2
01:31 56.1 °F 52.0 °F 29.66 in SW 8.0 mph 15.0 mph 86 % 0.00 in 0 W/m2
01:36 56.3 °F 52.2 °F 29.66 in SW 9.0 mph 18.0 mph 86 % 0.00 in 0 W/m2
01:41 56.1 °F 52.0 °F 29.66 in SW 8.0 mph 18.0 mph 86 % 0.00 in 0 W/m2
01:46 56.1 °F 52.0 °F 29.66 in SW 7.0 mph 11.0 mph 86 % 0.00 in 0 W/m2
01:51 55.9 °F 51.8 °F 29.66 in SW 7.0 mph 11.0 mph 86 % 0.00 in 0 W/m2
01:57 55.9 °F 51.8 °F 29.66 in SW 7.0 mph 12.0 mph 86 % 0.00 in 0 W/m2
02:02 55.9 °F 51.8 °F 29.66 in SW 7.0 mph 15.0 mph 86 % 0.00 in 0 W/m2
02:07 55.9 °F 51.8 °F 29.67 in SSW 7.0 mph 16.0 mph 86 % 0.00 in 0 W/m2
02:12 55.9 °F 51.8 °F 29.66 in SSW 8.0 mph 16.0 mph 86 % 0.00 in 0 W/m2
02:17 55.9 °F 51.8 °F 29.66 in SSW 7.0 mph 12.0 mph 86 % 0.00 in 0 W/m2
02:22 55.9 °F 51.8 °F 29.66 in SSW 8.0 mph 13.0 mph 86 % 0.00 in 0 W/m2
02:27 55.9 °F 51.8 °F 29.66 in SSW 8.0 mph 15.0 mph 86 % 0.00 in 0 W/m2
02:32 55.9 °F 51.8 °F 29.66 in SSW 8.0 mph 15.0 mph 86 % 0.00 in 0 W/m2
02:37 55.9 °F 51.8 °F 29.66 in SSW 7.0 mph 12.0 mph 86 % 0.00 in 0 W/m2
02:42 55.9 °F 51.8 °F 29.66 in SSW 7.0 mph 12.0 mph 86 % 0.00 in 0 W/m2
02:47 55.9 °F 51.8 °F 29.66 in SSW 7.0 mph 11.0 mph 86 % 0.00 in 0 W/m2
02:52 55.8 °F 51.6 °F 29.66 in SSW 7.0 mph 12.0 mph 86 % 0.00 in 0 W/m2
02:57 55.8 °F 51.6 °F 29.66 in SW 8.0 mph 15.0 mph 86 % 0.00 in 0 W/m2
03:02 55.8 °F 51.6 °F 29.66 in SW 8.0 mph 15.0 mph 86 % 0.00 in 0 W/m2
03:07 55.9 °F 51.8 °F 29.66 in SW 9.0 mph 16.0 mph 86 % 0.00 in 0 W/m2
03:12 55.9 °F 51.8 °F 29.66 in SW 11.0 mph 18.0 mph 86 % 0.00 in 0 W/m2
03:17 55.9 °F 51.8 °F 29.66 in SW 10.0 mph 18.0 mph 86 % 0.00 in 0 W/m2
03:22 55.9 °F 51.8 °F 29.66 in SW 9.0 mph 18.0 mph 86 % 0.00 in 0 W/m2
03:27 55.8 °F 51.6 °F 29.66 in SW 9.0 mph 18.0 mph 86 % 0.00 in 0 W/m2
03:32 55.8 °F 51.6 °F 29.66 in SW 9.0 mph 18.0 mph 86 % 0.00 in 0 W/m2
03:37 55.8 °F 51.6 °F 29.66 in SW 8.0 mph 15.0 mph 86 % 0.00 in 0 W/m2
03:42 55.8 °F 51.6 °F 29.66 in SW 9.0 mph 18.0 mph 86 % 0.00 in 0 W/m2
03:47 55.9 °F 51.8 °F 29.67 in SW 11.0 mph 19.0 mph 86 % 0.00 in 0 W/m2
03:52 55.9 °F 51.8 °F 29.67 in SW 11.0 mph 19.0 mph 86 % 0.00 in 0 W/m2
03:57 55.9 °F 51.8 °F 29.66 in SW 10.0 mph 18.0 mph 86 % 0.00 in 0 W/m2
04:02 56.1 °F 52.0 °F 29.67 in SW 10.0 mph 18.0 mph 86 % 0.00 in 0 W/m2
04:07 56.1 °F 51.7 °F 29.67 in SW 11.0 mph 18.0 mph 85 % 0.00 in 0 W/m2
04:12 56.1 °F 51.7 °F 29.67 in SW 9.0 mph 15.0 mph 85 % 0.00 in 0 W/m2
04:17 56.1 °F 51.7 °F 29.67 in SW 8.0 mph 14.0 mph 85 % 0.00 in 0 W/m2
04:22 56.1 °F 51.7 °F 29.67 in SW 8.0 mph 15.0 mph 85 % 0.00 in 0 W/m2
04:27 56.1 °F 51.7 °F 29.67 in WSW 8.0 mph 15.0 mph 85 % 0.00 in 0 W/m2
04:32 56.1 °F 51.7 °F 29.67 in WSW 7.0 mph 13.0 mph 85 % 0.00 in 0 W/m2
04:37 56.1 °F 51.7 °F 29.68 in WSW 7.0 mph 13.0 mph 85 % 0.00 in 0 W/m2
04:42 56.1 °F 51.7 °F 29.67 in WSW 6.0 mph 12.0 mph 85 % 0.00 in 0 W/m2
04:47 56.1 °F 51.7 °F 29.68 in SW 6.0 mph 12.0 mph 85 % 0.00 in 0 W/m2
04:52 55.9 °F 51.5 °F 29.68 in SW 6.0 mph 11.0 mph 85 % 0.00 in 0 W/m2
04:57 55.9 °F 51.5 °F 29.68 in SW 6.0 mph 11.0 mph 85 % 0.00 in 0 W/m2
05:02 55.8 °F 51.3 °F 29.68 in SW 4.0 mph 9.0 mph 85 % 0.00 in 0 W/m2
05:07 55.6 °F 51.1 °F 29.68 in SW 4.0 mph 9.0 mph 85 % 0.00 in 0 W/m2
05:12 55.6 °F 51.1 °F 29.68 in SW 4.0 mph 9.0 mph 85 % 0.00 in 0 W/m2
05:17 55.4 °F 51.3 °F 29.69 in SW 4.0 mph 10.0 mph 86 % 0.00 in 5 W/m2
05:22 55.4 °F 51.3 °F 29.69 in SW 5.0 mph 10.0 mph 86 % 0.00 in 5 W/m2
05:27 55.2 °F 51.1 °F 29.69 in SW 4.0 mph 10.0 mph 86 % 0.00 in 7 W/m2
05:32 55.2 °F 51.1 °F 29.69 in SW 4.0 mph 10.0 mph 86 % 0.00 in 9 W/m2
05:37 55.2 °F 51.1 °F 29.69 in SW 3.0 mph 7.0 mph 86 % 0.00 in 14 W/m2
05:42 55.2 °F 51.1 °F 29.70 in SW 3.0 mph 7.0 mph 86 % 0.00 in 18 W/m2
05:47 55.0 °F 50.9 °F 29.70 in SW 4.0 mph 8.0 mph 86 % 0.00 in 25 W/m2
05:52 55.0 °F 50.9 °F 29.70 in SW 5.0 mph 9.0 mph 86 % 0.00 in 35 W/m2
05:57 55.0 °F 50.9 °F 29.70 in SW 5.0 mph 9.0 mph 86 % 0.00 in 42 W/m2
06:02 55.0 °F 50.9 °F 29.70 in SW 5.0 mph 10.0 mph 86 % 0.00 in 46 W/m2
06:07 55.0 °F 50.9 °F 29.70 in SW 6.0 mph 10.0 mph 86 % 0.00 in 47 W/m2
06:12 55.2 °F 51.1 °F 29.70 in SW 5.0 mph 10.0 mph 86 % 0.00 in 49 W/m2
06:17 55.2 °F 50.8 °F 29.70 in SW 5.0 mph 10.0 mph 85 % 0.00 in 44 W/m2
06:22 55.2 °F 50.8 °F 29.70 in SW 4.0 mph 9.0 mph 85 % 0.00 in 44 W/m2
06:27 55.6 °F 51.1 °F 29.70 in SW 5.0 mph 7.0 mph 85 % 0.00 in 125 W/m2
06:28 55.6 °F 51.1 °F 29.70 in SW 5.0 mph 7.0 mph 85 % 0.00 in 81 W/m2
06:33 55.6 °F 50.8 °F 29.70 in SW 5.0 mph 10.0 mph 84 % 0.00 in 39 W/m2
06:38 55.6 °F 50.8 °F 29.71 in SW 5.0 mph 10.0 mph 84 % 0.00 in 33 W/m2
06:43 55.6 °F 50.8 °F 29.71 in SW 5.0 mph 9.0 mph 84 % 0.00 in 47 W/m2
06:48 55.6 °F 50.8 °F 29.71 in SW 5.0 mph 9.0 mph 84 % 0.00 in 47 W/m2
06:53 55.6 °F 50.8 °F 29.72 in SW 5.0 mph 9.0 mph 84 % 0.00 in 54 W/m2
06:58 55.6 °F 50.8 °F 29.72 in SSW 6.0 mph 10.0 mph 84 % 0.00 in 40 W/m2
07:03 55.8 °F 51.0 °F 29.72 in SW 5.0 mph 10.0 mph 84 % 0.00 in 56 W/m2
07:08 55.9 °F 51.2 °F 29.72 in SW 5.0 mph 9.0 mph 84 % 0.00 in 51 W/m2
07:13 56.1 °F 51.4 °F 29.72 in SSW 5.0 mph 9.0 mph 84 % 0.00 in 213 W/m2
07:19 56.7 °F 51.6 °F 29.72 in SW 5.0 mph 9.0 mph 83 % 0.00 in 272 W/m2
07:24 56.8 °F 51.4 °F 29.72 in SW 8.0 mph 14.0 mph 82 % 0.00 in 322 W/m2
07:29 57.2 °F 51.4 °F 29.72 in SW 10.0 mph 18.0 mph 81 % 0.00 in 315 W/m2
07:34 57.4 °F 51.3 °F 29.72 in SW 10.0 mph 18.0 mph 80 % 0.00 in 174 W/m2
07:39 57.6 °F 51.4 °F 29.73 in SW 9.0 mph 18.0 mph 80 % 0.00 in 176 W/m2
07:44 57.4 °F 51.3 °F 29.73 in SW 9.0 mph 13.0 mph 80 % 0.00 in 185 W/m2
07:49 57.4 °F 51.3 °F 29.73 in SW 9.0 mph 15.0 mph 80 % 0.00 in 276 W/m2
07:54 57.6 °F 51.8 °F 29.73 in SW 9.0 mph 16.0 mph 81 % 0.00 in 408 W/m2
07:59 57.6 °F 51.4 °F 29.73 in SW 9.0 mph 16.0 mph 80 % 0.00 in 118 W/m2
08:04 57.6 °F 51.4 °F 29.73 in SW 9.0 mph 15.0 mph 80 % 0.00 in 107 W/m2
08:09 57.6 °F 51.8 °F 29.73 in SW 7.0 mph 13.0 mph 81 % 0.00 in 380 W/m2
08:14 57.9 °F 51.8 °F 29.73 in SW 8.0 mph 21.0 mph 80 % 0.00 in 378 W/m2
08:19 58.5 °F 52.3 °F 29.73 in SW 11.0 mph 21.0 mph 80 % 0.00 in 388 W/m2
08:24 58.6 °F 51.8 °F 29.74 in SW 12.0 mph 22.0 mph 78 % 0.00 in 403 W/m2
08:29 58.8 °F 52.0 °F 29.74 in SW 12.0 mph 22.0 mph 78 % 0.00 in 438 W/m2
08:34 59.2 °F 52.0 °F 29.74 in SW 12.0 mph 22.0 mph 77 % 0.00 in 499 W/m2
08:39 59.5 °F 52.3 °F 29.74 in SW 12.0 mph 20.0 mph 77 % 0.00 in 547 W/m2
08:44 59.7 °F 51.8 °F 29.74 in SW 12.0 mph 21.0 mph 75 % 0.00 in 619 W/m2
08:49 60.3 °F 52.3 °F 29.74 in SW 12.0 mph 21.0 mph 75 % 0.00 in 276 W/m2
08:54 60.6 °F 53.0 °F 29.74 in SW 10.0 mph 15.0 mph 76 % 0.00 in 626 W/m2
08:59 60.8 °F 52.8 °F 29.74 in SSW 9.0 mph 15.0 mph 75 % 0.00 in 575 W/m2
09:04 61.2 °F 52.8 °F 29.74 in SSW 10.0 mph 16.0 mph 74 % 0.00 in 497 W/m2
09:09 61.3 °F 53.0 °F 29.74 in SSW 10.0 mph 16.0 mph 74 % 0.00 in 698 W/m2
09:14 61.9 °F 53.5 °F 29.74 in SSW 10.0 mph 16.0 mph 74 % 0.00 in 601 W/m2
09:19 61.9 °F 52.8 °F 29.74 in SSW 10.0 mph 15.0 mph 72 % 0.00 in 626 W/m2
09:24 61.5 °F 52.4 °F 29.74 in SSW 10.0 mph 15.0 mph 72 % 0.00 in 269 W/m2
09:29 61.3 °F 52.6 °F 29.74 in SW 9.0 mph 15.0 mph 73 % 0.00 in 336 W/m2
09:34 61.5 °F 52.4 °F 29.74 in SW 9.0 mph 19.0 mph 72 % 0.00 in 373 W/m2
09:39 61.5 °F 52.4 °F 29.74 in SW 11.0 mph 19.0 mph 72 % 0.00 in 529 W/m2
09:44 61.7 °F 53.0 °F 29.74 in SW 11.0 mph 19.0 mph 73 % 0.00 in 424 W/m2
09:49 62.1 °F 52.9 °F 29.75 in SW 9.0 mph 16.0 mph 72 % 0.00 in 415 W/m2
09:54 62.4 °F 53.3 °F 29.74 in SW 9.0 mph 16.0 mph 72 % 0.00 in 703 W/m2
09:59 62.4 °F 52.9 °F 29.74 in SW 9.0 mph 18.0 mph 71 % 0.00 in 200 W/m2
10:04 62.2 °F 52.3 °F 29.74 in SW 10.0 mph 19.0 mph 70 % 0.00 in 315 W/m2
10:09 62.4 °F 52.9 °F 29.75 in WSW 9.0 mph 19.0 mph 71 % 0.00 in 195 W/m2
10:12 62.4 °F 52.1 °F 29.75 in WSW 11.0 mph 20.0 mph 69 % 0.00 in 241 W/m2
10:17 62.4 °F 52.1 °F 29.75 in WSW 11.0 mph 20.0 mph 69 % 0.00 in 137 W/m2
10:22 62.1 °F 51.8 °F 29.74 in WSW 11.0 mph 19.0 mph 69 % 0.00 in 199 W/m2
10:27 62.2 °F 52.3 °F 29.75 in WSW 11.0 mph 19.0 mph 70 % 0.00 in 255 W/m2
10:32 62.6 °F 51.9 °F 29.74 in WSW 12.0 mph 22.0 mph 68 % 0.00 in 158 W/m2
10:37 62.8 °F 52.1 °F 29.75 in WSW 14.0 mph 23.0 mph 68 % 0.00 in 775 W/m2
10:42 63.0 °F 51.8 °F 29.74 in SW 14.0 mph 23.0 mph 67 % 0.00 in 766 W/m2
10:47 63.3 °F 53.0 °F 29.74 in SW 12.0 mph 22.0 mph 69 % 0.00 in 805 W/m2
10:51 64.0 °F 52.9 °F 29.74 in SW 12.0 mph 21.0 mph 67 % 0.00 in 870 W/m2
10:56 64.4 °F 52.4 °F 29.75 in SW 12.0 mph 24.0 mph 65 % 0.00 in 272 W/m2
11:01 64.2 °F 51.8 °F 29.74 in SW 13.0 mph 24.0 mph 64 % 0.00 in 396 W/m2
11:07 64.2 °F 51.8 °F 29.74 in WSW 13.0 mph 22.0 mph 64 % 0.00 in 508 W/m2
11:11 64.6 °F 51.7 °F 29.75 in WSW 13.0 mph 21.0 mph 63 % 0.00 in 434 W/m2
11:16 64.2 °F 51.8 °F 29.75 in WSW 14.0 mph 23.0 mph 64 % 0.00 in 274 W/m2
11:22 64.0 °F 51.6 °F 29.75 in SW 14.0 mph 23.0 mph 64 % 0.00 in 970 W/m2
11:27 64.4 °F 52.0 °F 29.75 in SW 13.0 mph 25.0 mph 64 % 0.00 in 357 W/m2
11:32 64.6 °F 51.7 °F 29.75 in SW 14.0 mph 25.0 mph 63 % 0.00 in 214 W/m2
11:37 64.2 °F 52.2 °F 29.75 in SW 13.0 mph 24.0 mph 65 % 0.00 in 257 W/m2
11:42 64.6 °F 52.5 °F 29.75 in SW 11.0 mph 24.0 mph 65 % 0.00 in 446 W/m2
11:47 64.6 °F 51.7 °F 29.75 in SW 11.0 mph 21.0 mph 63 % 0.00 in 218 W/m2
11:52 64.6 °F 51.7 °F 29.75 in SW 11.0 mph 21.0 mph 63 % 0.00 in 125 W/m2
11:57 64.2 °F 50.9 °F 29.75 in SW 11.0 mph 21.0 mph 62 % 0.00 in 104 W/m2
12:02 63.9 °F 51.0 °F 29.75 in SW 12.0 mph 21.0 mph 63 % 0.00 in 216 W/m2
12:07 64.0 °F 52.0 °F 29.75 in SW 11.0 mph 19.0 mph 65 % 0.00 in 232 W/m2
12:12 64.2 °F 51.8 °F 29.75 in SW 12.0 mph 19.0 mph 64 % 0.00 in 151 W/m2
12:17 64.0 °F 51.2 °F 29.75 in SW 12.0 mph 19.0 mph 63 % 0.00 in 153 W/m2
12:22 63.9 °F 51.4 °F 29.75 in SW 10.0 mph 20.0 mph 64 % 0.00 in 221 W/m2
12:27 63.9 °F 51.4 °F 29.75 in SW 11.0 mph 20.0 mph 64 % 0.00 in 135 W/m2
12:32 63.7 °F 51.7 °F 29.75 in SW 12.0 mph 22.0 mph 65 % 0.00 in 98 W/m2
12:37 63.3 °F 51.8 °F 29.76 in SW 12.0 mph 22.0 mph 66 % 0.00 in 104 W/m2
12:42 63.0 °F 53.0 °F 29.76 in SW 11.0 mph 21.0 mph 70 % 0.00 in 176 W/m2
12:47 62.8 °F 54.0 °F 29.76 in SW 9.0 mph 16.0 mph 73 % 0.00 in 299 W/m2
12:52 63.1 °F 54.7 °F 29.75 in SW 6.0 mph 10.0 mph 74 % 0.00 in 997 W/m2
12:57 63.7 °F 53.7 °F 29.75 in SW 6.0 mph 12.0 mph 70 % 0.00 in 353 W/m2
13:02 64.2 °F 53.4 °F 29.75 in SW 7.0 mph 18.0 mph 68 % 0.00 in 243 W/m2
13:07 64.4 °F 52.4 °F 29.75 in SW 10.0 mph 20.0 mph 65 % 0.00 in 223 W/m2
13:12 64.6 °F 52.1 °F 29.75 in SSW 12.0 mph 20.0 mph 64 % 0.00 in 216 W/m2
13:17 64.9 °F 53.3 °F 29.75 in SW 10.0 mph 18.0 mph 66 % 0.00 in 313 W/m2
13:22 65.7 °F 53.1 °F 29.75 in SW 9.0 mph 18.0 mph 64 % 0.00 in 1195 W/m2
13:27 66.7 °F 53.7 °F 29.75 in SSW 9.0 mph 18.0 mph 63 % 0.00 in 1150 W/m2
13:32 67.5 °F 52.6 °F 29.75 in SSW 10.0 mph 18.0 mph 59 % 0.00 in 424 W/m2
13:37 67.3 °F 52.5 °F 29.75 in SSW 11.0 mph 18.0 mph 59 % 0.00 in 223 W/m2
13:42 66.7 °F 52.4 °F 29.76 in SW 10.0 mph 18.0 mph 60 % 0.00 in 109 W/m2
13:47 66.4 °F 54.7 °F 29.76 in SW 9.0 mph 15.0 mph 66 % 0.01 in 67 W/m2
13:52 64.8 °F 55.5 °F 29.77 in WSW 9.0 mph 16.0 mph 72 % 0.02 in 79 W/m2
13:57 62.2 °F 54.9 °F 29.78 in WSW 11.0 mph 20.0 mph 77 % 0.07 in 125 W/m2
14:02 60.4 °F 54.9 °F 29.78 in WSW 12.0 mph 20.0 mph 82 % 0.09 in 199 W/m2
14:07 59.7 °F 55.2 °F 29.77 in WSW 10.0 mph 15.0 mph 85 % 0.09 in 199 W/m2
14:12 59.4 °F 55.2 °F 29.77 in WSW 8.0 mph 13.0 mph 86 % 0.09 in 178 W/m2
14:17 59.0 °F 54.8 °F 29.77 in WSW 9.0 mph 16.0 mph 86 % 0.09 in 246 W/m2
14:22 58.8 °F 55.3 °F 29.77 in SW 9.0 mph 16.0 mph 88 % 0.09 in 438 W/m2
14:27 59.5 °F 56.6 °F 29.77 in SW 7.0 mph 13.0 mph 90 % 0.09 in 1039 W/m2
14:32 60.3 °F 57.6 °F 29.77 in SW 5.0 mph 11.0 mph 91 % 0.09 in 1009 W/m2
14:37 61.3 °F 58.7 °F 29.77 in SSW 4.0 mph 9.0 mph 91 % 0.09 in 1074 W/m2
14:42 62.2 °F 59.3 °F 29.77 in SW 5.0 mph 10.0 mph 90 % 0.09 in 1041 W/m2
14:47 63.0 °F 58.4 °F 29.77 in SW 7.0 mph 14.0 mph 85 % 0.09 in 986 W/m2
14:52 63.9 °F 58.6 °F 29.77 in SW 9.0 mph 14.0 mph 83 % 0.07 in 974 W/m2
14:57 64.6 °F 57.9 °F 29.77 in WSW 9.0 mph 21.0 mph 79 % 0.02 in 935 W/m2
15:02 65.1 °F 57.7 °F 29.77 in SW 10.0 mph 21.0 mph 77 % 0.01 in 909 W/m2
15:07 65.5 °F 56.6 °F 29.77 in SW 11.0 mph 21.0 mph 73 % 0.01 in 889 W/m2
15:12 66.0 °F 56.3 °F 29.77 in SW 12.0 mph 20.0 mph 71 % 0.01 in 998 W/m2
15:17 66.6 °F 56.1 °F 29.77 in SW 12.0 mph 20.0 mph 69 % 0.00 in 1035 W/m2
15:22 67.1 °F 56.6 °F 29.77 in SW 11.0 mph 18.0 mph 69 % 0.00 in 529 W/m2
15:27 67.1 °F 55.4 °F 29.77 in SW 10.0 mph 19.0 mph 66 % 0.00 in 1048 W/m2
15:32 67.5 °F 56.5 °F 29.77 in SW 10.0 mph 20.0 mph 68 % 0.00 in 846 W/m2
15:37 67.6 °F 55.5 °F 29.76 in SW 9.0 mph 20.0 mph 65 % 0.00 in 800 W/m2
15:42 67.5 °F 55.3 °F 29.76 in SW 9.0 mph 15.0 mph 65 % 0.00 in 854 W/m2
15:47 67.6 °F 55.0 °F 29.77 in SSW 10.0 mph 20.0 mph 64 % 0.00 in 754 W/m2
15:52 67.8 °F 54.8 °F 29.76 in SSW 11.0 mph 25.0 mph 63 % 0.00 in 675 W/m2
15:57 67.8 °F 54.3 °F 29.76 in SW 12.0 mph 25.0 mph 62 % 0.00 in 953 W/m2
16:02 67.8 °F 53.4 °F 29.76 in SW 12.0 mph 25.0 mph 60 % 0.00 in 294 W/m2
16:07 67.6 °F 53.7 °F 29.76 in WSW 11.0 mph 22.0 mph 61 % 0.00 in 754 W/m2
16:12 67.8 °F 53.4 °F 29.77 in SW 12.0 mph 20.0 mph 60 % 0.00 in 758 W/m2
16:14 68.0 °F 53.1 °F 29.77 in SW 12.0 mph 20.0 mph 59 % 0.00 in 744 W/m2
16:19 68.4 °F 53.0 °F 29.77 in SW 12.0 mph 20.0 mph 58 % 0.00 in 729 W/m2
16:24 68.5 °F 52.7 °F 29.77 in WSW 12.0 mph 20.0 mph 57 % 0.00 in 777 W/m2
16:29 68.7 °F 52.9 °F 29.77 in WSW 12.0 mph 21.0 mph 57 % 0.00 in 809 W/m2
16:34 69.1 °F 53.2 °F 29.77 in WSW 11.0 mph 22.0 mph 57 % 0.00 in 812 W/m2
16:35 69.1 °F 52.7 °F 29.77 in WSW 11.0 mph 22.0 mph 56 % 0.00 in 823 W/m2
16:41 69.3 °F 52.9 °F 29.77 in SW 11.0 mph 22.0 mph 56 % 0.00 in 749 W/m2
16:45 69.1 °F 53.2 °F 29.77 in SW 12.0 mph 24.0 mph 57 % 0.00 in 318 W/m2
16:51 68.5 °F 51.7 °F 29.77 in SW 13.0 mph 24.0 mph 55 % 0.00 in 265 W/m2
16:56 67.8 °F 51.5 °F 29.77 in SW 13.0 mph 22.0 mph 56 % 0.00 in 237 W/m2
17:01 67.5 °F 52.2 °F 29.77 in SW 12.0 mph 20.0 mph 58 % 0.00 in 218 W/m2
17:06 67.1 °F 51.8 °F 29.77 in SW 9.0 mph 19.0 mph 58 % 0.00 in 185 W/m2
17:10 66.9 °F 52.1 °F 29.77 in SW 8.0 mph 14.0 mph 59 % 0.00 in 413 W/m2
17:15 67.3 °F 52.9 °F 29.78 in SW 8.0 mph 14.0 mph 60 % 0.00 in 684 W/m2
17:20 67.6 °F 52.3 °F 29.77 in SW 10.0 mph 20.0 mph 58 % 0.00 in 534 W/m2
17:26 67.6 °F 51.4 °F 29.77 in SW 11.0 mph 20.0 mph 56 % 0.00 in 176 W/m2
17:31 67.3 °F 51.0 °F 29.78 in SW 10.0 mph 18.0 mph 56 % 0.00 in 155 W/m2
17:36 66.9 °F 50.7 °F 29.77 in WSW 11.0 mph 23.0 mph 56 % 0.00 in 188 W/m2
17:41 66.6 °F 50.8 °F 29.77 in WSW 12.0 mph 23.0 mph 57 % 0.00 in 179 W/m2
17:46 66.4 °F 51.2 °F 29.77 in WSW 11.0 mph 18.0 mph 58 % 0.00 in 171 W/m2
17:51 66.0 °F 50.8 °F 29.78 in WSW 10.0 mph 18.0 mph 58 % 0.00 in 142 W/m2
17:52 66.0 °F 51.3 °F 29.78 in WSW 10.0 mph 15.0 mph 59 % 0.00 in 137 W/m2
17:57 66.0 °F 51.7 °F 29.78 in WSW 9.0 mph 16.0 mph 60 % 0.00 in 142 W/m2
18:02 65.7 °F 51.4 °F 29.78 in SW 10.0 mph 19.0 mph 60 % 0.00 in 148 W/m2
18:07 65.5 °F 51.7 °F 29.78 in SW 12.0 mph 19.0 mph 61 % 0.00 in 327 W/m2
18:12 65.5 °F 51.2 °F 29.78 in SW 12.0 mph 19.0 mph 60 % 0.00 in 158 W/m2
18:17 65.1 °F 51.8 °F 29.78 in SW 11.0 mph 19.0 mph 62 % 0.00 in 123 W/m2
18:22 65.1 °F 52.2 °F 29.78 in WSW 10.0 mph 19.0 mph 63 % 0.00 in 130 W/m2
18:27 64.9 °F 52.5 °F 29.78 in WSW 8.0 mph 12.0 mph 64 % 0.00 in 111 W/m2
18:32 64.9 °F 52.5 °F 29.78 in SW 7.0 mph 13.0 mph 64 % 0.00 in 114 W/m2
18:37 64.8 °F 52.7 °F 29.78 in SW 8.0 mph 14.0 mph 65 % 0.00 in 120 W/m2
18:42 64.6 °F 53.0 °F 29.78 in SW 8.0 mph 14.0 mph 66 % 0.00 in 121 W/m2
18:47 64.6 °F 53.0 °F 29.78 in SW 8.0 mph 12.0 mph 66 % 0.00 in 102 W/m2
18:52 64.4 °F 53.2 °F 29.78 in SW 7.0 mph 11.0 mph 67 % 0.00 in 104 W/m2
18:57 64.2 °F 53.0 °F 29.79 in SW 7.0 mph 10.0 mph 67 % 0.00 in 91 W/m2
19:02 64.2 °F 53.0 °F 29.79 in SW 7.0 mph 11.0 mph 67 % 0.00 in 65 W/m2
19:08 64.0 °F 52.9 °F 29.79 in WSW 7.0 mph 12.0 mph 67 % 0.00 in 56 W/m2
19:13 64.0 °F 52.4 °F 29.79 in WSW 7.0 mph 14.0 mph 66 % 0.00 in 53 W/m2
19:18 63.9 °F 51.4 °F 29.80 in WSW 8.0 mph 14.0 mph 64 % 0.00 in 49 W/m2
19:23 63.9 °F 51.4 °F 29.80 in WSW 10.0 mph 15.0 mph 64 % 0.00 in 42 W/m2
19:28 63.7 °F 51.3 °F 29.80 in WSW 9.0 mph 15.0 mph 64 % 0.00 in 39 W/m2
19:33 63.5 °F 51.5 °F 29.80 in WSW 8.0 mph 13.0 mph 65 % 0.00 in 81 W/m2
19:34 63.5 °F 51.5 °F 29.80 in WSW 8.0 mph 13.0 mph 65 % 0.00 in 91 W/m2
19:39 63.3 °F 51.3 °F 29.81 in WSW 7.0 mph 12.0 mph 65 % 0.00 in 54 W/m2
19:44 63.3 °F 51.3 °F 29.81 in WSW 7.0 mph 13.0 mph 65 % 0.00 in 30 W/m2
19:49 63.1 °F 51.2 °F 29.81 in SW 7.0 mph 13.0 mph 65 % 0.00 in 30 W/m2
19:55 63.0 °F 51.4 °F 29.81 in SW 6.0 mph 11.0 mph 66 % 0.00 in 35 W/m2
20:00 62.8 °F 51.7 °F 29.81 in SW 6.0 mph 9.0 mph 67 % 0.00 in 32 W/m2
20:05 62.6 °F 51.9 °F 29.81 in SW 5.0 mph 9.0 mph 68 % 0.00 in 30 W/m2
20:10 62.4 °F 52.1 °F 29.81 in SW 5.0 mph 8.0 mph 69 % 0.00 in 25 W/m2
20:15 62.4 °F 52.1 °F 29.81 in SW 5.0 mph 12.0 mph 69 % 0.00 in 23 W/m2
20:20 62.2 °F 51.9 °F 29.81 in SW 6.0 mph 12.0 mph 69 % 0.00 in 32 W/m2
20:25 62.1 °F 52.2 °F 29.81 in SW 6.0 mph 12.0 mph 70 % 0.00 in 37 W/m2
20:30 62.1 °F 52.5 °F 29.81 in SW 6.0 mph 12.0 mph 71 % 0.00 in 21 W/m2
20:35 61.9 °F 52.4 °F 29.81 in SW 6.0 mph 11.0 mph 71 % 0.00 in 16 W/m2
20:40 61.9 °F 52.4 °F 29.81 in SW 7.0 mph 12.0 mph 71 % 0.00 in 14 W/m2
20:45 61.7 °F 52.6 °F 29.81 in SW 7.0 mph 12.0 mph 72 % 0.00 in 12 W/m2
20:50 61.5 °F 52.4 °F 29.81 in SW 6.0 mph 11.0 mph 72 % 0.00 in 9 W/m2
20:55 61.5 °F 52.8 °F 29.82 in SW 6.0 mph 10.0 mph 73 % 0.00 in 7 W/m2
21:00 61.3 °F 52.6 °F 29.82 in SSW 6.0 mph 9.0 mph 73 % 0.00 in 5 W/m2
21:05 61.2 °F 52.8 °F 29.82 in SSW 6.0 mph 10.0 mph 74 % 0.00 in 0 W/m2
21:10 61.0 °F 52.6 °F 29.83 in SSW 6.0 mph 10.0 mph 74 % 0.00 in 0 W/m2
21:15 60.8 °F 52.5 °F 29.83 in SSW 5.0 mph 9.0 mph 74 % 0.00 in 0 W/m2
21:20 60.6 °F 52.6 °F 29.83 in SW 5.0 mph 9.0 mph 75 % 0.00 in 0 W/m2
21:25 60.4 °F 52.5 °F 29.83 in SW 6.0 mph 9.0 mph 75 % 0.00 in 0 W/m2
21:31 60.3 °F 52.7 °F 29.83 in SW 5.0 mph 8.0 mph 76 % 0.00 in 0 W/m2
21:36 60.1 °F 52.5 °F 29.83 in SW 4.0 mph 7.0 mph 76 % 0.00 in 0 W/m2
21:41 59.9 °F 52.7 °F 29.83 in SW 4.0 mph 7.0 mph 77 % 0.00 in 0 W/m2
21:46 59.7 °F 52.5 °F 29.83 in SW 4.0 mph 7.0 mph 77 % 0.00 in 0 W/m2
21:51 59.5 °F 52.3 °F 29.84 in SSW 4.0 mph 6.0 mph 77 % 0.00 in 0 W/m2
21:56 59.5 °F 52.7 °F 29.83 in SW 4.0 mph 7.0 mph 78 % 0.00 in 0 W/m2
22:01 59.5 °F 52.7 °F 29.84 in SW 2.0 mph 7.0 mph 78 % 0.00 in 0 W/m2
22:06 59.5 °F 52.3 °F 29.84 in SW 1.0 mph 6.0 mph 77 % 0.00 in 0 W/m2
22:11 59.5 °F 52.3 °F 29.84 in SW 3.0 mph 7.0 mph 77 % 0.00 in 0 W/m2
22:16 59.5 °F 52.3 °F 29.84 in SW 4.0 mph 7.0 mph 77 % 0.00 in 0 W/m2
22:21 59.4 °F 52.1 °F 29.84 in SW 5.0 mph 9.0 mph 77 % 0.00 in 0 W/m2
22:26 59.4 °F 52.1 °F 29.84 in SW 5.0 mph 9.0 mph 77 % 0.00 in 0 W/m2
22:31 59.2 °F 52.3 °F 29.84 in SW 5.0 mph 8.0 mph 78 % 0.00 in 0 W/m2
22:36 59.2 °F 52.3 °F 29.84 in SW 4.0 mph 8.0 mph 78 % 0.00 in 0 W/m2
22:41 59.2 °F 52.3 °F 29.84 in SW 3.0 mph 6.0 mph 78 % 0.00 in 0 W/m2
22:46 59.2 °F 52.3 °F 29.84 in SW 3.0 mph 6.0 mph 78 % 0.00 in 0 W/m2
22:51 59.2 °F 52.3 °F 29.84 in SW 4.0 mph 7.0 mph 78 % 0.00 in 0 W/m2
22:56 59.2 °F 52.3 °F 29.84 in SW 4.0 mph 7.0 mph 78 % 0.00 in 0 W/m2
23:01 59.0 °F 52.1 °F 29.84 in SW 3.0 mph 6.0 mph 78 % 0.00 in 0 W/m2
23:06 59.0 °F 52.5 °F 29.84 in SW 2.0 mph 5.0 mph 79 % 0.00 in 0 W/m2
23:11 58.8 °F 52.3 °F 29.84 in SW 2.0 mph 5.0 mph 79 % 0.00 in 0 W/m2
23:16 59.0 °F 52.1 °F 29.84 in SW 3.0 mph 8.0 mph 78 % 0.00 in 0 W/m2
23:21 59.0 °F 52.1 °F 29.84 in SW 5.0 mph 8.0 mph 78 % 0.00 in 0 W/m2
23:26 59.0 °F 52.1 °F 29.84 in SW 5.0 mph 8.0 mph 78 % 0.00 in 0 W/m2
23:31 58.8 °F 51.6 °F 29.84 in SW 6.0 mph 10.0 mph 77 % 0.00 in 0 W/m2
23:36 58.8 °F 51.6 °F 29.84 in SW 6.0 mph 10.0 mph 77 % 0.00 in 0 W/m2
23:41 58.8 °F 51.6 °F 29.84 in SW 5.0 mph 9.0 mph 77 % 0.00 in 0 W/m2
23:46 58.8 °F 51.6 °F 29.84 in SW 4.0 mph 9.0 mph 77 % 0.00 in 0 W/m2
23:51 58.8 °F 51.3 °F 29.85 in SW 3.0 mph 8.0 mph 76 % 0.00 in 0 W/m2
23:57 58.6 °F 51.1 °F 29.85 in SW 4.0 mph 7.0 mph 76 % 0.00 in 0 W/m2
Delerius-Weather
Compliments of Weather Underground - 2.25 mb

Data updates at regular intervals.